createdAt,value
2018-09-08T00:00:39.000Z,1007.22
2018-09-08T00:01:19.489Z,1007.21
2018-09-08T00:01:59.977Z,1007.2
2018-09-08T00:02:40.535Z,1007.22
2018-09-08T00:03:20.997Z,1007.22
2018-09-08T00:04:01.466Z,1007.19
2018-09-08T00:04:41.960Z,1007.23
2018-09-08T00:05:22.495Z,1007.24
2018-09-08T00:06:02.962Z,1007.24
2018-09-08T00:06:43.462Z,1007.22
2018-09-08T00:07:24.010Z,1007.22
2018-09-08T00:08:04.508Z,1007.22
2018-09-08T00:08:44.980Z,1007.23
2018-09-08T00:09:25.486Z,1007.28
2018-09-08T00:10:05.956Z,1007.24
2018-09-08T00:10:46.449Z,1007.27
2018-09-08T00:11:26.960Z,1007.24
2018-09-08T00:12:07.480Z,1007.26
2018-09-08T00:12:48.043Z,1007.24
2018-09-08T00:13:28.540Z,1007.25
2018-09-08T00:14:09.027Z,1007.25
2018-09-08T00:14:49.552Z,1007.29
2018-09-08T00:15:30.099Z,1007.28
2018-09-08T00:16:10.597Z,1007.28
2018-09-08T00:16:51.112Z,1007.29
2018-09-08T00:17:31.610Z,1007.3
2018-09-08T00:18:12.152Z,1007.33
2018-09-08T00:18:52.607Z,1007.32
2018-09-08T00:19:33.103Z,1007.31
2018-09-08T00:20:13.654Z,1007.33
2018-09-08T00:20:54.134Z,1007.35
2018-09-08T00:21:34.583Z,1007.36
2018-09-08T00:22:15.109Z,1007.38
2018-09-08T00:22:55.629Z,1007.39
2018-09-08T00:23:36.213Z,1007.37
2018-09-08T00:24:16.766Z,1007.4
2018-09-08T00:24:57.303Z,1007.33
2018-09-08T00:25:37.828Z,1007.4
2018-09-08T00:26:18.323Z,1007.37
2018-09-08T00:28:31.632Z,1007.39
2018-09-08T00:29:12.154Z,1007.35
2018-09-08T00:29:52.658Z,1007.4
2018-09-08T00:30:33.188Z,1007.37
2018-09-08T00:31:13.680Z,1007.41
2018-09-08T00:31:54.168Z,1007.38
2018-09-08T00:32:34.735Z,1007.42
2018-09-08T00:33:15.245Z,1007.41
2018-09-08T00:35:33.962Z,1007.47
2018-09-08T00:36:14.479Z,1007.49
2018-09-08T00:36:55.003Z,1007.52
2018-09-08T00:37:35.521Z,1007.5
2018-09-08T00:38:16.005Z,1007.5
2018-09-08T00:38:56.531Z,1007.5
2018-09-08T00:39:37.078Z,1007.53
2018-09-08T00:40:17.639Z,1007.49
2018-09-08T00:40:58.118Z,1007.53
2018-09-08T00:41:38.988Z,1007.55
2018-09-08T00:42:19.466Z,1007.55
2018-09-08T00:42:59.942Z,1007.55
2018-09-08T00:45:29.296Z,1007.6
2018-09-08T00:46:09.776Z,1007.59
2018-09-08T00:46:50.325Z,1007.59
2018-09-08T00:47:30.848Z,1007.62
2018-09-08T00:48:11.368Z,1007.61
2018-09-08T00:48:51.881Z,1007.6
2018-09-08T00:49:32.429Z,1007.67
2018-09-08T00:50:12.910Z,1007.63
2018-09-08T00:50:54.157Z,1007.61
2018-09-08T00:51:34.724Z,1007.62
2018-09-08T00:52:15.219Z,1007.61
2018-09-08T00:52:55.707Z,1007.59
2018-09-08T00:53:36.239Z,1007.6
2018-09-08T00:55:34.373Z,1007.65
2018-09-08T00:56:14.863Z,1007.57
2018-09-08T00:56:55.366Z,1007.6
2018-09-08T00:59:08.687Z,1007.62
2018-09-08T00:59:49.179Z,1007.59
2018-09-08T01:00:29.704Z,1007.62
2018-09-08T01:01:10.210Z,1007.61
2018-09-08T01:01:50.703Z,1007.64
2018-09-08T01:02:31.256Z,1007.61
2018-09-08T01:03:11.742Z,1007.63
2018-09-08T01:03:52.370Z,1007.65
2018-09-08T01:04:32.769Z,1007.65
2018-09-08T01:05:13.318Z,1007.66
2018-09-08T01:05:53.813Z,1007.63
2018-09-08T01:06:34.395Z,1007.66
2018-09-08T01:07:14.830Z,1007.66
2018-09-08T01:07:55.315Z,1007.67
2018-09-08T01:08:35.834Z,1007.66
2018-09-08T01:09:16.298Z,1007.63
2018-09-08T01:09:56.848Z,1007.64
2018-09-08T01:10:37.321Z,1007.7
2018-09-08T01:11:17.943Z,1007.67
2018-09-08T01:11:58.394Z,1007.67
2018-09-08T01:12:38.876Z,1007.69
2018-09-08T01:13:19.414Z,1007.71
2018-09-08T01:13:59.931Z,1007.71
2018-09-08T01:14:40.494Z,1007.71
2018-09-08T01:15:20.913Z,1007.76
2018-09-08T01:16:01.433Z,1007.75
2018-09-08T01:16:41.936Z,1007.76
2018-09-08T01:17:22.403Z,1007.7
2018-09-08T01:18:02.930Z,1007.76
2018-09-08T01:18:43.394Z,1007.73
2018-09-08T01:19:23.923Z,1007.75
2018-09-08T01:20:04.433Z,1007.8
2018-09-08T01:20:44.928Z,1007.76
2018-09-08T01:21:25.412Z,1007.79
2018-09-08T01:22:05.944Z,1007.79
2018-09-08T01:22:46.416Z,1007.76
2018-09-08T01:23:26.900Z,1007.74
2018-09-08T01:24:07.392Z,1007.76
2018-09-08T01:24:47.880Z,1007.74
2018-09-08T01:25:28.396Z,1007.75
2018-09-08T01:26:08.925Z,1007.74
2018-09-08T01:26:49.373Z,1007.72
2018-09-08T01:27:29.890Z,1007.73
2018-09-08T01:28:10.373Z,1007.72
2018-09-08T01:28:50.978Z,1007.75
2018-09-08T01:29:31.522Z,1007.76
2018-09-08T01:30:12.101Z,1007.77
2018-09-08T01:30:52.632Z,1007.79
2018-09-08T01:31:33.109Z,1007.72
2018-09-08T01:32:13.651Z,1007.81
2018-09-08T01:32:54.169Z,1007.76
2018-09-08T01:33:34.678Z,1007.79
2018-09-08T01:34:15.170Z,1007.77
2018-09-08T01:34:55.649Z,1007.77
2018-09-08T01:35:36.177Z,1007.8
2018-09-08T01:36:16.657Z,1007.82
2018-09-08T01:36:57.131Z,1007.82
2018-09-08T01:37:37.588Z,1007.9
2018-09-08T01:38:18.104Z,1007.86
2018-09-08T01:38:58.672Z,1007.89
2018-09-08T01:39:39.137Z,1007.9
2018-09-08T01:40:19.644Z,1007.89
2018-09-08T01:41:00.141Z,1007.89
2018-09-08T01:41:40.639Z,1007.83
2018-09-08T01:42:21.139Z,1007.87
2018-09-08T01:43:01.629Z,1007.89
2018-09-08T01:43:42.143Z,1007.91
2018-09-08T01:44:22.692Z,1007.89
2018-09-08T01:45:03.153Z,1007.9
2018-09-08T01:45:43.609Z,1007.87
2018-09-08T01:46:24.154Z,1007.86
2018-09-08T01:47:04.676Z,1007.87
2018-09-08T01:47:45.154Z,1007.85
2018-09-08T01:48:25.657Z,1007.82
2018-09-08T01:49:06.209Z,1007.83
2018-09-08T01:49:46.715Z,1007.86
2018-09-08T01:50:27.216Z,1007.82
2018-09-08T01:51:07.731Z,1007.84
2018-09-08T01:51:48.242Z,1007.86
2018-09-08T01:52:28.763Z,1007.84
2018-09-08T01:53:09.234Z,1007.9
2018-09-08T01:53:49.740Z,1007.87
2018-09-08T01:54:30.243Z,1007.9
2018-09-08T01:55:10.778Z,1007.85
2018-09-08T01:55:51.277Z,1007.96
2018-09-08T01:56:31.776Z,1007.87
2018-09-08T01:57:12.272Z,1007.89
2018-09-08T01:57:52.745Z,1007.88
2018-09-08T01:58:33.255Z,1007.85
2018-09-08T01:59:13.713Z,1007.9
2018-09-08T01:59:54.248Z,1007.92
2018-09-08T02:00:34.751Z,1007.86
2018-09-08T02:01:15.264Z,1007.9
2018-09-08T02:01:55.663Z,1007.89
2018-09-08T02:02:36.182Z,1007.86
2018-09-08T02:03:16.686Z,1007.92
2018-09-08T02:03:57.225Z,1007.91
2018-09-08T02:04:37.726Z,1007.87
2018-09-08T02:05:18.224Z,1007.88
2018-09-08T02:05:58.684Z,1007.89
2018-09-08T02:06:39.187Z,1007.88
2018-09-08T02:07:19.675Z,1007.88
2018-09-08T02:08:00.183Z,1007.89
2018-09-08T02:08:40.666Z,1007.89
2018-09-08T02:09:21.124Z,1007.93
2018-09-08T02:10:01.665Z,1007.92
2018-09-08T02:10:42.164Z,1007.98
2018-09-08T02:11:22.663Z,1007.89
2018-09-08T02:12:03.110Z,1007.93
2018-09-08T02:12:43.641Z,1007.91
2018-09-08T02:13:24.068Z,1007.89
2018-09-08T02:14:04.565Z,1007.92
2018-09-08T02:14:45.048Z,1007.88
2018-09-08T02:15:25.569Z,1007.9
2018-09-08T02:16:06.017Z,1007.89
2018-09-08T02:16:46.551Z,1007.9
2018-09-08T02:17:27.012Z,1007.96
2018-09-08T02:18:07.495Z,1007.9
2018-09-08T02:18:48.038Z,1007.9
2018-09-08T02:19:28.500Z,1007.95
2018-09-08T02:20:08.952Z,1007.92
2018-09-08T02:20:49.450Z,1007.93
2018-09-08T02:21:29.912Z,1007.91
2018-09-08T02:22:10.450Z,1007.91
2018-09-08T02:22:50.921Z,1007.98
2018-09-08T02:23:31.455Z,1007.95
2018-09-08T02:24:11.913Z,1007.91
2018-09-08T02:24:52.409Z,1007.9
2018-09-08T02:25:33.021Z,1007.95
2018-09-08T02:26:13.438Z,1007.94
2018-09-08T02:26:53.987Z,1007.89
2018-09-08T02:27:34.475Z,1007.9
2018-09-08T02:28:14.956Z,1007.87
2018-09-08T02:28:56.100Z,1007.94
2018-09-08T02:29:36.559Z,1007.97
2018-09-08T02:30:17.056Z,1007.95
2018-09-08T02:30:57.567Z,1008.01
2018-09-08T02:31:38.097Z,1007.99
2018-09-08T02:32:18.551Z,1007.96
2018-09-08T02:32:59.063Z,1008
2018-09-08T02:33:39.545Z,1008.01
2018-09-08T02:34:20.100Z,1008.03
2018-09-08T02:35:00.585Z,1008.01
2018-09-08T02:35:41.116Z,1007.97
2018-09-08T02:36:21.606Z,1007.96
2018-09-08T02:37:02.114Z,1007.98
2018-09-08T02:37:42.613Z,1007.99
2018-09-08T02:38:23.106Z,1007.98
2018-09-08T02:39:03.609Z,1007.97
2018-09-08T02:39:44.119Z,1008.01
2018-09-08T02:40:24.621Z,1007.99
2018-09-08T02:41:05.124Z,1007.94
2018-09-08T02:41:45.589Z,1007.97
2018-09-08T02:42:26.092Z,1007.96
2018-09-08T02:43:06.558Z,1007.98
2018-09-08T02:43:47.037Z,1008
2018-09-08T02:44:27.577Z,1007.99
2018-09-08T02:45:08.042Z,1008.01
2018-09-08T02:45:48.517Z,1008
2018-09-08T02:46:29.127Z,1008.04
2018-09-08T02:47:09.496Z,1008.02
2018-09-08T02:47:49.998Z,1008.04
2018-09-08T02:48:30.530Z,1008.07
2018-09-08T02:49:10.945Z,1008.04
2018-09-08T02:49:51.462Z,1008.06
2018-09-08T02:50:31.938Z,1008.06
2018-09-08T02:51:12.425Z,1008.06
2018-09-08T02:51:52.884Z,1008.09
2018-09-08T02:52:33.386Z,1008.06
2018-09-08T02:53:13.872Z,1008.05
2018-09-08T02:53:54.387Z,1008.1
2018-09-08T02:54:34.857Z,1008.05
2018-09-08T02:55:15.388Z,1008.03
2018-09-08T02:55:55.850Z,1008.05
2018-09-08T02:56:36.350Z,1008.06
2018-09-08T02:57:16.877Z,1008.03
2018-09-08T02:57:57.288Z,1008.03
2018-09-08T02:58:37.825Z,1008
2018-09-08T02:59:18.284Z,1008.04
2018-09-08T02:59:58.902Z,1008.03
2018-09-08T03:00:39.393Z,1008.01
2018-09-08T03:01:20.199Z,1008.05
2018-09-08T03:02:00.699Z,1008.03
2018-09-08T03:02:41.167Z,1008.02
2018-09-08T03:03:21.668Z,1008
2018-09-08T03:04:02.128Z,1008.03
2018-09-08T03:04:42.631Z,1008
2018-09-08T03:05:23.121Z,1007.97
2018-09-08T03:06:03.615Z,1008.01
2018-09-08T03:06:44.121Z,1007.99
2018-09-08T03:07:24.618Z,1008
2018-09-08T03:08:05.205Z,1008
2018-09-08T03:08:45.701Z,1008.01
2018-09-08T03:09:26.155Z,1008.07
2018-09-08T03:10:06.685Z,1008.05
2018-09-08T03:10:47.212Z,1008.08
2018-09-08T03:11:27.661Z,1008.09
2018-09-08T03:12:08.195Z,1008.09
2018-09-08T03:12:48.633Z,1008.07
2018-09-08T03:13:29.212Z,1008.08
2018-09-08T03:14:09.706Z,1008.06
2018-09-08T03:14:50.189Z,1008.03
2018-09-08T03:15:30.673Z,1008.04
2018-09-08T03:16:11.154Z,1008.06
2018-09-08T03:16:51.702Z,1008.06
2018-09-08T03:17:32.216Z,1008.07
2018-09-08T03:18:12.710Z,1008.07
2018-09-08T03:18:53.221Z,1008.03
2018-09-08T03:19:33.711Z,1008.06
2018-09-08T03:20:14.206Z,1008.1
2018-09-08T03:20:54.731Z,1008.07
2018-09-08T03:21:35.230Z,1008.07
2018-09-08T03:22:15.722Z,1008.03
2018-09-08T03:22:56.442Z,1008.1
2018-09-08T03:23:36.970Z,1008.12
2018-09-08T03:24:17.477Z,1008.15
2018-09-08T03:24:57.915Z,1008.11
2018-09-08T03:25:38.452Z,1008.15
2018-09-08T03:26:18.925Z,1008.16
2018-09-08T03:26:59.421Z,1008.1
2018-09-08T03:27:39.849Z,1008.14
2018-09-08T03:28:20.337Z,1008.1
2018-09-08T03:29:00.822Z,1008.15
2018-09-08T03:29:41.328Z,1008.1
2018-09-08T03:30:21.826Z,1008.12
2018-09-08T03:31:02.334Z,1008.13
2018-09-08T03:31:42.852Z,1008.11
2018-09-08T03:32:23.335Z,1008.14
2018-09-08T03:33:03.826Z,1008.15
2018-09-08T03:33:44.333Z,1008.16
2018-09-08T03:34:24.860Z,1008.16
2018-09-08T03:35:05.311Z,1008.17
2018-09-08T03:35:45.818Z,1008.2
2018-09-08T03:36:26.306Z,1008.16
2018-09-08T03:37:06.813Z,1008.15
2018-09-08T03:37:47.330Z,1008.14
2018-09-08T03:38:27.812Z,1008.14
2018-09-08T03:39:08.335Z,1008.14
2018-09-08T03:39:48.752Z,1008.13
2018-09-08T03:40:29.283Z,1008.14
2018-09-08T03:41:09.705Z,1008.12
2018-09-08T03:41:50.199Z,1008.11
2018-09-08T03:42:30.695Z,1008.1
2018-09-08T03:43:11.170Z,1008.11
2018-09-08T03:43:51.720Z,1008.13
2018-09-08T03:44:32.230Z,1008.1
2018-09-08T03:45:12.720Z,1008.11
2018-09-08T03:45:53.206Z,1008.14
2018-09-08T03:46:33.695Z,1008.15
2018-09-08T03:47:14.208Z,1008.12
2018-09-08T03:47:54.725Z,1008.09
2018-09-08T03:48:35.248Z,1008.09
2018-09-08T03:49:15.771Z,1008.08
2018-09-08T03:49:56.257Z,1008.05
2018-09-08T03:50:36.746Z,1008.06
2018-09-08T03:51:17.228Z,1008.06
2018-09-08T03:51:57.697Z,1008.06
2018-09-08T03:52:38.206Z,1008.05
2018-09-08T03:53:18.688Z,1008.04
2018-09-08T03:53:59.161Z,1008.11
2018-09-08T03:54:39.694Z,1008.07
2018-09-08T03:55:20.184Z,1008.05
2018-09-08T03:56:00.634Z,1008.08
2018-09-08T03:56:41.145Z,1008.12
2018-09-08T03:57:21.636Z,1008.15
2018-09-08T03:58:02.167Z,1008.12
2018-09-08T03:58:42.613Z,1008.16
2018-09-08T03:59:23.117Z,1008.11
2018-09-08T04:00:03.619Z,1008.11
2018-09-08T04:00:44.134Z,1008.07
2018-09-08T04:01:24.592Z,1008.12
2018-09-08T04:02:05.091Z,1008.07
2018-09-08T04:02:45.696Z,1008.08
2018-09-08T04:03:26.147Z,1008.08
2018-09-08T04:04:06.646Z,1008.08
2018-09-08T04:04:47.144Z,1008.1
2018-09-08T04:05:27.656Z,1008.11
2018-09-08T04:06:08.136Z,1008.12
2018-09-08T04:06:48.593Z,1008.13
2018-09-08T04:07:29.111Z,1008.09
2018-09-08T04:08:09.582Z,1008.08
2018-09-08T04:08:50.125Z,1008.14
2018-09-08T04:09:30.569Z,1008.1
2018-09-08T04:10:11.083Z,1008.11
2018-09-08T04:10:51.561Z,1008.1
2018-09-08T04:11:32.067Z,1008.1
2018-09-08T04:12:12.566Z,1008.09
2018-09-08T04:12:53.026Z,1008.05
2018-09-08T04:13:33.528Z,1008.09
2018-09-08T04:14:13.995Z,1008.09
2018-09-08T04:14:54.466Z,1008.14
2018-09-08T04:15:34.988Z,1008.18
2018-09-08T04:16:15.432Z,1008.13
2018-09-08T04:16:55.912Z,1008.21
2018-09-08T04:17:36.417Z,1008.13
2018-09-08T04:18:16.911Z,1008.22
2018-09-08T04:18:57.424Z,1008.2
2018-09-08T04:19:37.900Z,1008.24
2018-09-08T04:20:18.441Z,1008.24
2018-09-08T04:20:58.897Z,1008.25
2018-09-08T04:21:39.408Z,1008.21
2018-09-08T04:22:19.859Z,1008.22
2018-09-08T04:23:00.370Z,1008.24
2018-09-08T04:23:40.873Z,1008.24
2018-09-08T04:24:21.361Z,1008.25
2018-09-08T04:25:01.864Z,1008.29
2018-09-08T04:25:42.357Z,1008.27
2018-09-08T04:26:22.869Z,1008.26
2018-09-08T04:27:03.354Z,1008.24
2018-09-08T04:27:43.827Z,1008.26
2018-09-08T04:28:24.356Z,1008.29
2018-09-08T04:29:04.817Z,1008.29
2018-09-08T04:29:45.291Z,1008.28
2018-09-08T04:30:25.899Z,1008.29
2018-09-08T04:31:06.357Z,1008.31
2018-09-08T04:31:46.857Z,1008.27
2018-09-08T04:32:27.347Z,1008.27
2018-09-08T04:33:07.832Z,1008.29
2018-09-08T04:33:48.313Z,1008.34
2018-09-08T04:34:28.795Z,1008.3
2018-09-08T04:35:09.258Z,1008.29
2018-09-08T04:35:49.760Z,1008.32
2018-09-08T04:36:30.237Z,1008.28
2018-09-08T04:37:10.736Z,1008.29
2018-09-08T04:37:51.215Z,1008.29
2018-09-08T04:38:31.726Z,1008.27
2018-09-08T04:39:12.185Z,1008.24
2018-09-08T04:39:52.691Z,1008.31
2018-09-08T04:40:33.197Z,1008.29
2018-09-08T04:41:13.680Z,1008.33
2018-09-08T04:41:54.179Z,1008.3
2018-09-08T04:42:34.613Z,1008.33
2018-09-08T04:43:15.147Z,1008.32
2018-09-08T04:43:55.597Z,1008.36
2018-09-08T04:44:36.082Z,1008.34
2018-09-08T04:45:16.636Z,1008.32
2018-09-08T04:45:57.101Z,1008.32
2018-09-08T04:46:37.593Z,1008.33
2018-09-08T04:47:18.109Z,1008.33
2018-09-08T04:47:58.527Z,1008.34
2018-09-08T04:48:39.046Z,1008.33
2018-09-08T04:49:19.639Z,1008.33
2018-09-08T04:49:59.998Z,1008.37
2018-09-08T04:50:40.453Z,1008.35
2018-09-08T04:51:20.986Z,1008.36
2018-09-08T04:52:01.483Z,1008.37
2018-09-08T04:52:42.326Z,1008.37
2018-09-08T04:53:22.780Z,1008.4
2018-09-08T04:54:03.287Z,1008.41
2018-09-08T04:54:43.797Z,1008.45
2018-09-08T04:55:24.291Z,1008.4
2018-09-08T04:56:04.745Z,1008.42
2018-09-08T04:56:45.235Z,1008.39
2018-09-08T04:57:25.708Z,1008.42
2018-09-08T04:58:06.201Z,1008.4
2018-09-08T04:58:46.720Z,1008.41
2018-09-08T04:59:27.232Z,1008.41
2018-09-08T05:00:08.574Z,1008.46
2018-09-08T05:00:49.090Z,1008.45
2018-09-08T05:01:29.601Z,1008.42
2018-09-08T05:02:10.116Z,1008.46
2018-09-08T05:02:50.618Z,1008.47
2018-09-08T05:03:31.114Z,1008.49
2018-09-08T05:04:11.615Z,1008.46
2018-09-08T05:04:52.171Z,1008.46
2018-09-08T05:05:32.696Z,1008.46
2018-09-08T05:06:13.161Z,1008.5
2018-09-08T05:06:53.636Z,1008.51
2018-09-08T05:07:34.112Z,1008.46
2018-09-08T05:08:14.683Z,1008.45
2018-09-08T05:08:55.144Z,1008.47
2018-09-08T05:09:35.598Z,1008.48
2018-09-08T05:10:16.078Z,1008.46
2018-09-08T05:10:56.598Z,1008.49
2018-09-08T05:11:37.044Z,1008.49
2018-09-08T05:12:17.553Z,1008.52
2018-09-08T05:12:58.033Z,1008.5
2018-09-08T05:13:38.532Z,1008.52
2018-09-08T05:14:19.007Z,1008.51
2018-09-08T05:14:59.513Z,1008.48
2018-09-08T05:15:40.065Z,1008.55
2018-09-08T05:16:20.481Z,1008.55
2018-09-08T05:17:01.007Z,1008.56
2018-09-08T05:17:41.469Z,1008.55
2018-09-08T05:18:22.011Z,1008.58
2018-09-08T05:19:02.520Z,1008.59
2018-09-08T05:19:42.959Z,1008.6
2018-09-08T05:20:23.487Z,1008.6
2018-09-08T05:21:04.002Z,1008.55
2018-09-08T05:21:44.447Z,1008.61
2018-09-08T05:22:24.955Z,1008.58
2018-09-08T05:23:05.416Z,1008.58
2018-09-08T05:23:45.904Z,1008.54
2018-09-08T05:24:26.375Z,1008.55
2018-09-08T05:25:06.804Z,1008.58
2018-09-08T05:25:47.292Z,1008.58
2018-09-08T05:26:27.796Z,1008.61
2018-09-08T05:27:08.273Z,1008.57
2018-09-08T05:27:48.724Z,1008.56
2018-09-08T05:28:29.237Z,1008.58
2018-09-08T05:29:09.725Z,1008.61
2018-09-08T05:29:50.195Z,1008.61
2018-09-08T05:30:30.693Z,1008.55
2018-09-08T05:31:11.258Z,1008.61
2018-09-08T05:31:51.720Z,1008.6
2018-09-08T05:32:32.178Z,1008.63
2018-09-08T05:33:12.684Z,1008.63
2018-09-08T05:33:53.155Z,1008.64
2018-09-08T05:34:33.632Z,1008.68
2018-09-08T05:35:14.174Z,1008.64
2018-09-08T05:35:54.658Z,1008.69
2018-09-08T05:36:35.163Z,1008.7
2018-09-08T05:37:15.638Z,1008.7
2018-09-08T05:37:56.175Z,1008.69
2018-09-08T05:38:36.632Z,1008.68
2018-09-08T05:39:17.136Z,1008.72
2018-09-08T05:39:57.629Z,1008.7
2018-09-08T05:40:38.126Z,1008.66
2018-09-08T05:41:18.639Z,1008.69
2018-09-08T05:41:59.140Z,1008.7
2018-09-08T05:42:39.649Z,1008.72
2018-09-08T05:43:20.191Z,1008.68
2018-09-08T05:44:00.738Z,1008.7
2018-09-08T05:44:41.230Z,1008.71
2018-09-08T05:45:21.718Z,1008.72
2018-09-08T05:46:02.247Z,1008.74
2018-09-08T05:46:42.986Z,1008.74
2018-09-08T05:47:23.606Z,1008.7
2018-09-08T05:48:04.127Z,1008.76
2018-09-08T05:48:44.830Z,1008.73
2018-09-08T05:49:25.304Z,1008.77
2018-09-08T05:50:05.809Z,1008.74
2018-09-08T05:50:46.335Z,1008.79
2018-09-08T05:51:26.798Z,1008.8
2018-09-08T05:52:07.332Z,1008.75
2018-09-08T05:52:47.888Z,1008.78
2018-09-08T05:53:28.394Z,1008.78
2018-09-08T05:54:08.893Z,1008.77
2018-09-08T05:54:49.385Z,1008.77
2018-09-08T05:55:29.849Z,1008.76
2018-09-08T05:56:10.331Z,1008.78
2018-09-08T05:56:50.884Z,1008.79
2018-09-08T05:57:31.384Z,1008.77
2018-09-08T05:58:11.988Z,1008.77
2018-09-08T05:58:52.435Z,1008.74
2018-09-08T05:59:32.934Z,1008.79
2018-09-08T06:00:13.423Z,1008.77
2018-09-08T06:00:53.948Z,1008.76
2018-09-08T06:01:34.457Z,1008.78
2018-09-08T06:02:14.992Z,1008.81
2018-09-08T06:02:55.443Z,1008.8
2018-09-08T06:04:48.522Z,1008.86
2018-09-08T06:05:28.982Z,1008.85
2018-09-08T06:06:09.494Z,1008.87
2018-09-08T06:06:49.983Z,1008.89
2018-09-08T06:07:30.476Z,1008.86
2018-09-08T06:08:10.968Z,1008.87
2018-09-08T06:08:51.484Z,1008.85
2018-09-08T06:09:31.974Z,1008.85
2018-09-08T06:10:12.467Z,1008.83
2018-09-08T06:10:52.985Z,1008.81
2018-09-08T06:11:33.480Z,1008.85
2018-09-08T06:12:13.991Z,1008.81
2018-09-08T06:12:54.547Z,1008.86
2018-09-08T06:13:35.183Z,1008.83
2018-09-08T06:14:16.128Z,1008.83
2018-09-08T06:14:57.150Z,1008.83
2018-09-08T06:15:37.594Z,1008.8
2018-09-08T06:16:18.087Z,1008.79
2018-09-08T06:16:58.733Z,1008.8
2018-09-08T06:17:39.096Z,1008.79
2018-09-08T06:18:19.658Z,1008.88
2018-09-08T06:19:00.109Z,1008.89
2018-09-08T06:19:40.691Z,1008.84
2018-09-08T06:20:21.145Z,1008.87
2018-09-08T06:21:01.769Z,1008.89
2018-09-08T06:21:42.559Z,1008.9
2018-09-08T06:22:22.792Z,1008.89
2018-09-08T06:23:04.015Z,1008.88
2018-09-08T06:23:44.524Z,1008.88
2018-09-08T06:24:25.081Z,1008.82
2018-09-08T06:25:05.552Z,1008.82
2018-09-08T06:25:46.337Z,1008.84
2018-09-08T06:26:26.830Z,1008.83
2018-09-08T06:27:07.316Z,1008.84
2018-09-08T06:27:47.761Z,1008.85
2018-09-08T06:29:40.863Z,1008.84
2018-09-08T06:30:21.374Z,1008.82
2018-09-08T06:31:01.913Z,1008.84
2018-09-08T06:31:42.411Z,1008.79
2018-09-08T06:32:22.913Z,1008.81
2018-09-08T06:33:03.407Z,1008.82
2018-09-08T06:33:43.925Z,1008.8
2018-09-08T06:34:24.378Z,1008.79
2018-09-08T06:35:04.943Z,1008.8
2018-09-08T06:35:45.362Z,1008.83
2018-09-08T06:36:25.874Z,1008.81
2018-09-08T06:37:06.368Z,1008.85
2018-09-08T06:37:46.877Z,1008.9
2018-09-08T06:38:27.415Z,1008.89
2018-09-08T06:39:07.910Z,1008.94
2018-09-08T06:39:48.433Z,1008.98
2018-09-08T06:40:28.923Z,1008.95
2018-09-08T06:41:09.378Z,1008.99
2018-09-08T06:41:49.862Z,1008.99
2018-09-08T06:42:30.405Z,1009
2018-09-08T06:43:10.909Z,1008.97
2018-09-08T06:43:52.317Z,1009.02
2018-09-08T06:44:32.025Z,1009.01
2018-09-08T06:45:12.638Z,1009
2018-09-08T06:45:52.998Z,1009.01
2018-09-08T06:46:33.485Z,1009.04
2018-09-08T06:47:13.979Z,1008.99
2018-09-08T06:47:54.518Z,1008.98
2018-09-08T06:48:35.064Z,1009.02
2018-09-08T06:49:15.686Z,1009.03
2018-09-08T06:49:56.179Z,1009.02
2018-09-08T06:50:36.816Z,1009.05
2018-09-08T06:51:17.289Z,1009.03
2018-09-08T06:51:57.762Z,1009.05
2018-09-08T06:52:38.381Z,1009.1
2018-09-08T06:53:18.824Z,1009.09
2018-09-08T06:53:59.366Z,1009.09
2018-09-08T06:54:39.872Z,1009.11
2018-09-08T06:55:20.373Z,1009.12
2018-09-08T06:56:00.823Z,1009.13
2018-09-08T06:56:41.480Z,1009.14
2018-09-08T06:57:22.188Z,1009.13
2018-09-08T06:58:02.747Z,1009.15
2018-09-08T06:58:43.215Z,1009.13
2018-09-08T06:59:23.641Z,1009.15
2018-09-08T07:00:04.265Z,1009.12
2018-09-08T07:00:44.791Z,1009.14
2018-09-08T07:01:25.297Z,1009.13
2018-09-08T07:02:05.874Z,1009.13
2018-09-08T07:02:46.393Z,1009.17
2018-09-08T07:03:26.901Z,1009.18
2018-09-08T07:04:07.377Z,1009.2
2018-09-08T07:04:47.889Z,1009.21
2018-09-08T07:05:28.391Z,1009.17
2018-09-08T07:06:09.034Z,1009.17
2018-09-08T07:06:49.474Z,1009.19
2018-09-08T07:07:29.988Z,1009.17
2018-09-08T07:08:11.119Z,1009.2
2018-09-08T07:08:51.635Z,1009.21
2018-09-08T07:10:44.728Z,1009.26
2018-09-08T07:11:25.287Z,1009.25
2018-09-08T07:12:05.799Z,1009.21
2018-09-08T07:12:46.339Z,1009.22
2018-09-08T07:13:26.829Z,1009.21
2018-09-08T07:14:07.434Z,1009.25
2018-09-08T07:14:47.925Z,1009.19
2018-09-08T07:15:28.550Z,1009.18
2018-09-08T07:16:09.068Z,1009.19
2018-09-08T07:16:49.552Z,1009.21
2018-09-08T07:17:30.064Z,1009.21
2018-09-08T07:18:10.510Z,1009.23
2018-09-08T07:18:51.001Z,1009.22
2018-09-08T07:19:31.510Z,1009.25
2018-09-08T07:20:11.996Z,1009.27
2018-09-08T07:20:52.548Z,1009.22
2018-09-08T07:21:33.060Z,1009.24
2018-09-08T07:22:13.577Z,1009.25
2018-09-08T07:24:26.821Z,1009.26
2018-09-08T07:25:07.315Z,1009.28
2018-09-08T07:25:47.831Z,1009.26
2018-09-08T07:26:28.405Z,1009.26
2018-09-08T07:27:08.918Z,1009.23
2018-09-08T07:27:49.485Z,1009.21
2018-09-08T07:28:29.957Z,1009.24
2018-09-08T07:29:10.440Z,1009.26
2018-09-08T07:29:50.937Z,1009.23
2018-09-08T07:30:31.413Z,1009.21
2018-09-08T07:31:12.064Z,1009.18
2018-09-08T07:31:52.372Z,1009.27
2018-09-08T07:32:32.859Z,1009.22
2018-09-08T07:33:13.485Z,1009.22
2018-09-08T07:33:54.030Z,1009.24
2018-09-08T07:34:34.510Z,1009.25
2018-09-08T07:35:15.754Z,1009.24
2018-09-08T07:35:56.246Z,1009.29
2018-09-08T07:36:36.754Z,1009.31
2018-09-08T07:37:17.344Z,1009.3
2018-09-08T07:37:57.785Z,1009.3
2018-09-08T07:38:38.286Z,1009.33
2018-09-08T07:39:19.211Z,1009.3
2018-09-08T07:39:59.739Z,1009.3
2018-09-08T07:40:40.246Z,1009.36
2018-09-08T07:41:20.724Z,1009.35
2018-09-08T07:42:01.298Z,1009.34
2018-09-08T07:42:41.745Z,1009.33
2018-09-08T07:43:22.258Z,1009.32
2018-09-08T07:44:02.779Z,1009.33
2018-09-08T07:44:43.402Z,1009.31
2018-09-08T07:45:23.832Z,1009.29
2018-09-08T07:46:04.372Z,1009.3
2018-09-08T07:46:44.834Z,1009.29
2018-09-08T07:47:25.348Z,1009.29
2018-09-08T07:48:05.916Z,1009.28
2018-09-08T07:48:46.420Z,1009.32
2018-09-08T07:49:26.886Z,1009.33
2018-09-08T07:50:07.398Z,1009.34
2018-09-08T07:50:47.911Z,1009.32
2018-09-08T07:51:28.384Z,1009.36
2018-09-08T07:52:08.859Z,1009.34
2018-09-08T07:52:49.380Z,1009.31
2018-09-08T07:53:30.068Z,1009.32
2018-09-08T07:54:10.558Z,1009.31
2018-09-08T07:54:51.094Z,1009.33
2018-09-08T07:55:31.613Z,1009.29
2018-09-08T07:56:12.451Z,1009.29
2018-09-08T07:56:52.919Z,1009.32
2018-09-08T07:57:33.460Z,1009.28
2018-09-08T07:58:14.400Z,1009.3
2018-09-08T07:58:55.054Z,1009.3
2018-09-08T07:59:35.591Z,1009.25
2018-09-08T08:00:16.069Z,1009.29
2018-09-08T08:00:56.629Z,1009.24
2018-09-08T08:01:37.285Z,1009.26
2018-09-08T08:02:17.791Z,1009.24
2018-09-08T08:02:58.311Z,1009.29
2018-09-08T08:03:39.063Z,1009.3
2018-09-08T08:05:52.570Z,1009.27
2018-09-08T08:06:33.222Z,1009.33
2018-09-08T08:07:13.680Z,1009.27
2018-09-08T08:07:54.182Z,1009.32
2018-09-08T08:08:34.868Z,1009.31
2018-09-08T08:09:15.327Z,1009.31
2018-09-08T08:09:55.773Z,1009.3
2018-09-08T08:10:36.222Z,1009.27
2018-09-08T08:11:16.718Z,1009.3
2018-09-08T08:11:57.324Z,1009.34
2018-09-08T08:12:38.079Z,1009.31
2018-09-08T08:13:18.514Z,1009.29
2018-09-08T08:13:59.848Z,1009.34
2018-09-08T08:14:40.446Z,1009.31
2018-09-08T08:15:21.047Z,1009.32
2018-09-08T08:16:01.649Z,1009.27
2018-09-08T08:16:42.195Z,1009.29
2018-09-08T08:17:22.649Z,1009.31
2018-09-08T08:18:03.129Z,1009.3
2018-09-08T08:18:44.181Z,1009.32
2018-09-08T08:19:24.520Z,1009.36
2018-09-08T08:20:05.260Z,1009.35
2018-09-08T08:20:45.597Z,1009.33
2018-09-08T08:21:26.373Z,1009.33
2018-09-08T08:22:07.075Z,1009.34
2018-09-08T08:22:47.755Z,1009.32
2018-09-08T08:23:28.314Z,1009.32
2018-09-08T08:24:08.813Z,1009.37
2018-09-08T08:24:49.349Z,1009.33
2018-09-08T08:25:30.388Z,1009.34
2018-09-08T08:26:10.980Z,1009.38
2018-09-08T08:26:51.453Z,1009.37
2018-09-08T08:27:31.937Z,1009.36